createdAt,value
2022-08-25T00:00:25.425Z,1.20
2022-08-25T00:02:59.087Z,1.67
2022-08-25T00:05:33.906Z,1.30
2022-08-25T00:08:06.926Z,0.85
2022-08-25T00:10:42.945Z,0.98
2022-08-25T00:13:14.782Z,1.42
2022-08-25T00:15:45.727Z,0.90
2022-08-25T00:18:19.531Z,1.20
2022-08-25T00:20:53.131Z,0.95
2022-08-25T00:23:24.079Z,0.93
2022-08-25T00:25:56.437Z,1.33
2022-08-25T00:28:27.172Z,2.15
2022-08-25T00:30:57.831Z,1.13
2022-08-25T00:33:28.288Z,1.38
2022-08-25T00:36:02.103Z,1.20
2022-08-25T00:38:33.246Z,1.20
2022-08-25T00:41:11.338Z,1.02
2022-08-25T00:43:52.512Z,1.15
2022-08-25T00:46:28.101Z,1.10
2022-08-25T00:49:04.783Z,1.15
2022-08-25T00:51:45.640Z,1.50
2022-08-25T00:54:21.746Z,0.95
2022-08-25T00:56:55.666Z,1.25
2022-08-25T00:59:28.650Z,0.90
2022-08-25T01:02:00.003Z,1.10
2022-08-25T01:04:31.624Z,1.08
2022-08-25T01:07:05.785Z,2.00
2022-08-25T01:09:42.377Z,1.23
2022-08-25T01:12:13.144Z,0.90
2022-08-25T01:14:45.156Z,2.10
2022-08-25T01:17:17.147Z,1.20
2022-08-25T01:19:47.944Z,0.90
2022-08-25T01:22:22.002Z,1.30
2022-08-25T01:25:02.319Z,1.13
2022-08-25T01:27:33.265Z,1.17
2022-08-25T01:30:03.871Z,1.00
2022-08-25T01:32:37.526Z,1.27
2022-08-25T01:35:09.561Z,1.48
2022-08-25T01:37:41.804Z,1.10
2022-08-25T01:40:13.780Z,0.90
2022-08-25T01:43:01.150Z,1.30
2022-08-25T01:45:32.229Z,0.90
2022-08-25T01:48:02.659Z,1.23
2022-08-25T01:50:33.552Z,1.05
2022-08-25T01:53:10.548Z,0.98
2022-08-25T01:55:54.619Z,0.82
2022-08-25T01:58:28.087Z,1.48
2022-08-25T02:01:02.749Z,1.42
2022-08-25T02:03:33.774Z,1.50
2022-08-25T02:06:04.609Z,1.33
2022-08-25T02:08:38.787Z,0.80
2022-08-25T02:11:13.045Z,0.90
2022-08-25T02:13:44.742Z,1.80
2022-08-25T02:16:23.221Z,0.95
2022-08-25T02:18:54.439Z,1.10
2022-08-25T02:21:26.297Z,1.27
2022-08-25T02:24:00.648Z,0.75
2022-08-25T02:26:31.868Z,1.40
2022-08-25T02:29:03.048Z,0.98
2022-08-25T02:31:33.813Z,1.50
2022-08-25T02:34:05.535Z,1.02
2022-08-25T02:36:36.628Z,1.00
2022-08-25T02:39:12.013Z,1.40
2022-08-25T02:41:42.951Z,1.00
2022-08-25T02:44:14.484Z,1.10
2022-08-25T02:46:45.349Z,1.10
2022-08-25T02:49:16.405Z,0.95
2022-08-25T02:51:47.399Z,2.00
2022-08-25T02:54:20.573Z,1.17
2022-08-25T02:56:52.582Z,1.30
2022-08-25T02:59:23.745Z,1.20
2022-08-25T03:01:54.719Z,1.30
2022-08-25T03:04:25.864Z,1.35
2022-08-25T03:07:01.243Z,1.23
2022-08-25T03:09:34.301Z,2.05
2022-08-25T03:12:10.788Z,2.17
2022-08-25T03:14:42.630Z,1.25
2022-08-25T03:17:13.428Z,1.20
2022-08-25T03:19:44.284Z,1.88
2022-08-25T03:22:15.226Z,1.30
2022-08-25T03:24:48.075Z,1.33
2022-08-25T03:27:17.057Z,1.38
2022-08-25T03:29:48.475Z,2.42
2022-08-25T03:32:18.681Z,1.23
2022-08-25T03:34:48.719Z,1.40
2022-08-25T03:37:20.391Z,1.65
2022-08-25T03:39:53.172Z,1.40
2022-08-25T03:42:23.948Z,1.30
2022-08-25T03:44:55.181Z,1.40
2022-08-25T03:47:29.764Z,1.40
2022-08-25T03:50:00.807Z,2.10
2022-08-25T03:52:31.828Z,1.60
2022-08-25T03:55:06.085Z,1.45
2022-08-25T03:57:37.252Z,1.80
2022-08-25T04:00:09.910Z,1.50
2022-08-25T04:02:40.986Z,1.52
2022-08-25T04:05:12.844Z,1.15
2022-08-25T04:07:47.229Z,1.13
2022-08-25T04:10:20.180Z,1.35
2022-08-25T04:12:52.211Z,1.30
2022-08-25T04:15:22.804Z,1.70
2022-08-25T04:17:53.932Z,1.42
2022-08-25T04:20:25.056Z,1.30
2022-08-25T04:22:55.810Z,1.77
2022-08-25T04:25:28.060Z,1.20
2022-08-25T04:27:58.623Z,1.35
2022-08-25T04:30:29.303Z,1.40
2022-08-25T04:33:00.114Z,1.40
2022-08-25T04:35:30.611Z,2.50
2022-08-25T04:38:03.323Z,1.27
2022-08-25T04:40:35.651Z,2.22
2022-08-25T04:43:07.431Z,1.40
2022-08-25T04:45:41.084Z,1.25
2022-08-25T04:48:11.935Z,1.20
2022-08-25T04:50:43.022Z,1.30
2022-08-25T04:53:14.065Z,1.73
2022-08-25T04:55:47.741Z,1.92
2022-08-25T04:58:19.560Z,1.40
2022-08-25T05:00:50.738Z,1.38
2022-08-25T05:03:21.801Z,1.23
2022-08-25T05:05:55.616Z,2.42
2022-08-25T05:08:26.154Z,1.42
2022-08-25T05:10:58.545Z,0.95
2022-08-25T05:13:30.101Z,1.20
2022-08-25T05:16:03.139Z,0.88
2022-08-25T05:18:36.371Z,1.27
2022-08-25T05:21:11.965Z,2.78
2022-08-25T05:23:44.165Z,1.38
2022-08-25T05:26:20.548Z,1.58
2022-08-25T05:28:54.545Z,1.65
2022-08-25T05:31:27.320Z,1.35
2022-08-25T05:33:58.202Z,1.50
2022-08-25T05:36:31.158Z,1.40
2022-08-25T05:39:01.794Z,1.27
2022-08-25T05:41:34.395Z,1.38
2022-08-25T05:44:05.617Z,2.03
2022-08-25T05:46:36.719Z,2.70
2022-08-25T05:49:07.592Z,1.33
2022-08-25T05:51:38.366Z,1.38
2022-08-25T05:54:08.771Z,2.03
2022-08-25T05:56:41.032Z,1.67
2022-08-25T05:59:12.955Z,1.83
2022-08-25T06:02:00.222Z,1.67
2022-08-25T06:04:31.275Z,2.88
2022-08-25T06:07:01.897Z,1.40
2022-08-25T06:09:33.126Z,2.38
2022-08-25T06:12:06.498Z,1.88
2022-08-25T06:14:38.610Z,3.60
2022-08-25T06:17:09.552Z,1.13
2022-08-25T06:19:41.330Z,1.70
2022-08-25T06:22:11.835Z,1.30
2022-08-25T06:24:45.150Z,1.42
2022-08-25T06:27:17.473Z,1.15
2022-08-25T06:29:48.868Z,1.17
2022-08-25T06:32:23.571Z,1.88
2022-08-25T06:34:53.720Z,1.27
2022-08-25T06:37:25.315Z,1.20
2022-08-25T06:39:56.854Z,1.40
2022-08-25T06:42:31.271Z,1.20
2022-08-25T06:45:02.771Z,1.75
2022-08-25T06:47:33.639Z,0.93
2022-08-25T06:50:05.584Z,0.93
2022-08-25T06:52:37.229Z,1.25
2022-08-25T06:55:08.989Z,1.33
2022-08-25T06:57:41.354Z,1.70
2022-08-25T07:00:14.377Z,1.30
2022-08-25T07:02:44.897Z,2.40
2022-08-25T07:05:26.970Z,1.17
2022-08-25T07:08:05.188Z,1.13
2022-08-25T07:10:35.504Z,0.82
2022-08-25T07:13:09.362Z,1.30
2022-08-25T07:15:42.209Z,1.10
2022-08-25T07:18:16.808Z,1.30
2022-08-25T07:20:47.687Z,1.23
2022-08-25T07:23:19.158Z,1.13
2022-08-25T07:25:49.995Z,0.85
2022-08-25T07:28:25.345Z,1.13
2022-08-25T07:31:01.453Z,1.40
2022-08-25T07:33:32.602Z,1.42
2022-08-25T07:36:01.697Z,1.45
2022-08-25T07:38:32.167Z,1.83
2022-08-25T07:41:08.605Z,2.03
2022-08-25T07:43:42.321Z,1.45
2022-08-25T07:46:13.731Z,1.50
2022-08-25T07:48:44.983Z,1.20
2022-08-25T07:51:24.630Z,1.30
2022-08-25T07:53:55.754Z,1.50
2022-08-25T07:56:26.416Z,1.63
2022-08-25T07:58:58.893Z,1.50
2022-08-25T08:01:30.201Z,2.40
2022-08-25T08:04:03.438Z,1.25
2022-08-25T08:06:35.259Z,1.30
2022-08-25T08:09:06.850Z,1.38
2022-08-25T08:11:45.198Z,1.80
2022-08-25T08:14:26.433Z,1.40
2022-08-25T08:16:57.277Z,1.38
2022-08-25T08:19:27.799Z,2.00
2022-08-25T08:22:02.326Z,1.30
2022-08-25T08:24:44.812Z,1.13
2022-08-25T08:27:25.379Z,1.50
2022-08-25T08:29:57.989Z,2.50
2022-08-25T08:32:45.101Z,1.20
2022-08-25T08:35:19.833Z,1.27
2022-08-25T08:37:52.592Z,1.35
2022-08-25T08:40:25.788Z,2.00
2022-08-25T08:43:18.039Z,1.30
2022-08-25T08:45:54.429Z,1.65
2022-08-25T08:49:04.665Z,1.88
2022-08-25T08:51:43.809Z,0.90
2022-08-25T08:54:23.148Z,1.10
2022-08-25T08:57:06.947Z,1.38
2022-08-25T08:59:49.467Z,1.33
2022-08-25T09:02:39.320Z,1.33
2022-08-25T09:05:25.011Z,1.52
2022-08-25T09:08:00.830Z,1.73
2022-08-25T09:10:48.190Z,1.40
2022-08-25T09:13:32.211Z,1.90
2022-08-25T09:16:34.411Z,1.55
2022-08-25T09:19:32.230Z,1.08
2022-08-25T09:22:33.881Z,1.52
2022-08-25T09:25:39.636Z,1.27
2022-08-25T09:28:25.645Z,1.20
2022-08-25T09:31:02.607Z,0.90
2022-08-25T09:33:37.541Z,1.08
2022-08-25T09:36:10.987Z,1.30
2022-08-25T09:38:42.733Z,1.27
2022-08-25T09:41:19.622Z,1.30
2022-08-25T09:43:58.214Z,1.15
2022-08-25T09:46:32.079Z,1.27
2022-08-25T09:49:17.235Z,0.90
2022-08-25T09:51:49.974Z,1.35
2022-08-25T09:54:43.832Z,1.15
2022-08-25T09:57:36.933Z,1.30
2022-08-25T10:00:22.084Z,1.02
2022-08-25T10:03:12.945Z,0.65
2022-08-25T10:06:04.579Z,0.85
2022-08-25T10:08:42.617Z,1.20
2022-08-25T10:11:16.539Z,0.80
2022-08-25T10:13:52.687Z,0.80
2022-08-25T10:16:33.606Z,0.90
2022-08-25T10:19:12.872Z,1.13
2022-08-25T10:21:46.220Z,1.05
2022-08-25T10:24:20.046Z,0.73
2022-08-25T10:27:04.017Z,1.00
2022-08-25T10:30:06.279Z,0.82
2022-08-25T10:33:09.316Z,1.13
2022-08-25T10:35:59.104Z,0.90
2022-08-25T10:38:50.469Z,0.98
2022-08-25T10:41:55.324Z,1.00
2022-08-25T10:44:53.889Z,0.75
2022-08-25T10:48:10.643Z,0.70
2022-08-25T10:50:49.861Z,1.30
2022-08-25T10:53:32.365Z,0.70
2022-08-25T10:56:21.579Z,0.80
2022-08-25T10:59:20.193Z,0.93
2022-08-25T11:02:50.762Z,4.80
2022-08-25T11:05:33.292Z,8.00
2022-08-25T11:08:13.549Z,5.47
2022-08-25T11:10:52.561Z,4.38
2022-08-25T11:13:34.392Z,3.75
2022-08-25T11:16:18.550Z,3.97
2022-08-25T11:18:59.801Z,4.03
2022-08-25T11:21:46.066Z,2.90
2022-08-25T11:24:39.180Z,3.28
2022-08-25T11:27:19.666Z,3.63
2022-08-25T11:30:10.094Z,3.35
2022-08-25T11:32:46.179Z,2.17
2022-08-25T11:35:21.514Z,2.22
2022-08-25T11:38:19.808Z,2.28
2022-08-25T11:41:11.450Z,1.65
2022-08-25T11:44:18.032Z,1.13
2022-08-25T11:47:21.585Z,1.85
2022-08-25T11:50:04.730Z,1.35
2022-08-25T11:52:57.151Z,1.23
2022-08-25T11:55:50.097Z,1.40
2022-08-25T11:58:51.374Z,1.02
2022-08-25T12:02:30.932Z,0.70
2022-08-25T12:05:04.162Z,0.85
2022-08-25T12:08:22.041Z,0.93
2022-08-25T12:11:10.656Z,1.02
2022-08-25T12:13:48.347Z,0.68
2022-08-25T12:16:44.930Z,0.90
2022-08-25T12:19:54.280Z,0.80
2022-08-25T12:23:02.301Z,1.35
2022-08-25T12:25:56.353Z,0.63
2022-08-25T12:28:50.109Z,0.85
2022-08-25T12:31:42.794Z,0.65
2022-08-25T12:34:39.714Z,1.60
2022-08-25T12:37:17.940Z,0.95
2022-08-25T12:40:02.950Z,1.00
2022-08-25T12:42:40.087Z,0.52
2022-08-25T12:45:32.678Z,1.45
2022-08-25T12:48:57.564Z,0.73
2022-08-25T12:51:48.504Z,0.95
2022-08-25T12:54:28.154Z,0.70
2022-08-25T12:57:05.083Z,0.63
2022-08-25T12:59:40.444Z,0.75
2022-08-25T13:02:52.449Z,1.00
2022-08-25T13:06:01.497Z,0.60
2022-08-25T13:09:20.963Z,0.82
2022-08-25T13:12:04.034Z,0.73
2022-08-25T13:14:42.013Z,0.57
2022-08-25T13:17:27.217Z,0.45
2022-08-25T13:20:16.890Z,0.55
2022-08-25T13:22:57.334Z,0.50
2022-08-25T13:25:33.638Z,0.80
2022-08-25T13:28:11.167Z,0.32
2022-08-25T13:30:44.189Z,0.95
2022-08-25T13:33:25.184Z,2.72
2022-08-25T13:36:12.244Z,0.50
2022-08-25T13:38:45.821Z,0.52
2022-08-25T13:41:29.301Z,0.60
2022-08-25T13:44:02.768Z,0.77
2022-08-25T13:46:36.750Z,0.52
2022-08-25T13:49:10.453Z,1.10
2022-08-25T13:51:53.822Z,0.52
2022-08-25T13:54:32.565Z,0.77
2022-08-25T13:57:18.525Z,0.95
2022-08-25T13:59:55.423Z,0.55
2022-08-25T14:02:50.796Z,0.68
2022-08-25T14:05:37.923Z,0.40
2022-08-25T14:08:23.515Z,1.30
2022-08-25T14:11:14.774Z,0.45
2022-08-25T14:13:47.148Z,0.40
2022-08-25T14:16:26.873Z,1.13
2022-08-25T14:19:04.133Z,0.90
2022-08-25T14:21:37.555Z,2.00
2022-08-25T14:24:12.060Z,0.68
2022-08-25T14:26:53.820Z,0.43
2022-08-25T14:29:25.042Z,0.50
2022-08-25T14:31:56.639Z,0.52
2022-08-25T14:34:37.448Z,0.40
2022-08-25T14:37:15.459Z,1.30
2022-08-25T14:39:47.830Z,0.65
2022-08-25T14:42:18.508Z,0.40
2022-08-25T14:44:49.452Z,0.73
2022-08-25T14:47:21.182Z,0.85
2022-08-25T14:49:56.922Z,0.50
2022-08-25T14:52:32.889Z,0.75
2022-08-25T14:55:06.103Z,0.60
2022-08-25T14:57:38.325Z,1.00
2022-08-25T15:00:12.067Z,0.70
2022-08-25T15:02:46.743Z,0.30
2022-08-25T15:05:29.605Z,0.65
2022-08-25T15:08:17.775Z,0.47
2022-08-25T15:10:48.482Z,0.80
2022-08-25T15:13:19.607Z,0.38
2022-08-25T15:15:53.233Z,0.40
2022-08-25T15:18:24.730Z,0.75
2022-08-25T15:20:57.210Z,0.85
2022-08-25T15:23:28.778Z,0.88
2022-08-25T15:26:00.274Z,0.60
2022-08-25T15:28:31.290Z,0.50
2022-08-25T15:31:02.507Z,0.57
2022-08-25T15:33:33.851Z,0.57
2022-08-25T15:36:07.530Z,0.73
2022-08-25T15:38:46.805Z,0.60
2022-08-25T15:41:18.194Z,1.52
2022-08-25T15:43:48.284Z,0.32
2022-08-25T15:46:26.048Z,0.50
2022-08-25T15:48:57.733Z,1.15
2022-08-25T15:51:30.928Z,0.65
2022-08-25T15:54:02.153Z,0.77
2022-08-25T15:56:33.364Z,0.70
2022-08-25T15:59:08.662Z,0.65
2022-08-25T16:01:39.705Z,0.30
2022-08-25T16:04:10.793Z,0.60
2022-08-25T16:06:43.797Z,1.15
2022-08-25T16:09:16.177Z,0.60
2022-08-25T16:11:56.094Z,1.23
2022-08-25T16:14:28.838Z,0.70
2022-08-25T16:17:01.214Z,0.50
2022-08-25T16:19:32.010Z,0.43
2022-08-25T16:22:08.717Z,0.50
2022-08-25T16:24:44.847Z,0.73
2022-08-25T16:27:16.257Z,0.65
2022-08-25T16:29:48.229Z,0.45
2022-08-25T16:32:19.967Z,0.82
2022-08-25T16:34:50.631Z,0.77
2022-08-25T16:37:22.715Z,1.48
2022-08-25T16:39:56.628Z,0.30
2022-08-25T16:42:27.501Z,0.90
2022-08-25T16:44:59.354Z,0.45
2022-08-25T16:47:29.730Z,0.50
2022-08-25T16:50:00.410Z,0.40
2022-08-25T16:52:59.579Z,0.88
2022-08-25T16:55:38.927Z,0.70
2022-08-25T16:58:13.509Z,0.50
2022-08-25T17:00:45.013Z,0.80
2022-08-25T17:03:17.502Z,0.88
2022-08-25T17:05:48.376Z,0.47
2022-08-25T17:08:32.121Z,0.38
2022-08-25T17:11:12.027Z,1.83
2022-08-25T17:13:47.357Z,0.35
2022-08-25T17:16:22.565Z,0.55
2022-08-25T17:18:53.749Z,0.88
2022-08-25T17:21:28.041Z,0.50
2022-08-25T17:24:00.655Z,0.88
2022-08-25T17:26:36.754Z,0.60
2022-08-25T17:29:09.190Z,0.50
2022-08-25T17:31:40.722Z,0.40
2022-08-25T17:34:16.221Z,0.65
2022-08-25T17:36:47.891Z,0.82
2022-08-25T17:39:22.387Z,0.82
2022-08-25T17:41:54.592Z,0.47
2022-08-25T17:44:25.141Z,0.47
2022-08-25T17:46:56.374Z,1.00
2022-08-25T17:49:27.586Z,0.50
2022-08-25T17:51:58.397Z,0.70
2022-08-25T17:54:31.377Z,0.68
2022-08-25T17:57:02.617Z,0.73
2022-08-25T17:59:32.789Z,0.45
2022-08-25T18:02:04.904Z,1.13
2022-08-25T18:04:35.617Z,0.57
2022-08-25T18:07:08.723Z,0.82
2022-08-25T18:09:41.206Z,0.90
2022-08-25T18:12:11.932Z,0.80
2022-08-25T18:14:42.764Z,1.00
2022-08-25T18:17:22.017Z,0.90
2022-08-25T18:19:54.001Z,0.50
2022-08-25T18:22:25.052Z,0.50
2022-08-25T18:24:58.048Z,1.00
2022-08-25T18:27:29.222Z,0.95
2022-08-25T18:30:00.457Z,0.40
2022-08-25T18:32:32.124Z,0.85
2022-08-25T18:35:03.695Z,2.17
2022-08-25T18:37:52.318Z,0.75
2022-08-25T18:40:25.175Z,0.47
2022-08-25T18:42:58.280Z,0.47
2022-08-25T18:45:32.550Z,0.40
2022-08-25T18:48:04.594Z,0.30
2022-08-25T18:50:41.463Z,0.35
2022-08-25T18:53:13.085Z,0.30
2022-08-25T18:55:47.203Z,0.38
2022-08-25T18:58:19.928Z,0.68
2022-08-25T19:00:51.539Z,0.40
2022-08-25T19:03:24.185Z,0.50
2022-08-25T19:05:57.192Z,1.17
2022-08-25T19:08:28.539Z,0.57
2022-08-25T19:11:01.357Z,0.88
2022-08-25T19:13:32.326Z,0.50
2022-08-25T19:16:12.170Z,0.45
2022-08-25T19:18:45.029Z,0.35
2022-08-25T19:21:15.618Z,0.60
2022-08-25T19:23:45.912Z,0.65
2022-08-25T19:26:19.477Z,0.60
2022-08-25T19:28:51.319Z,0.73
2022-08-25T19:31:25.445Z,0.50
2022-08-25T19:33:59.899Z,0.47
2022-08-25T19:36:32.943Z,0.60
2022-08-25T19:39:05.300Z,0.98
2022-08-25T19:41:37.937Z,0.82
2022-08-25T19:44:09.197Z,0.85
2022-08-25T19:46:43.110Z,0.60
2022-08-25T19:49:18.852Z,1.40
2022-08-25T19:51:53.930Z,0.40
2022-08-25T19:54:28.724Z,1.08
2022-08-25T19:57:03.789Z,1.42
2022-08-25T19:59:43.196Z,0.70
2022-08-25T20:02:20.263Z,1.27
2022-08-25T20:05:10.343Z,1.02
2022-08-25T20:07:41.469Z,0.60
2022-08-25T20:10:15.957Z,0.40
2022-08-25T20:12:50.595Z,0.60
2022-08-25T20:15:21.024Z,0.50
2022-08-25T20:17:51.690Z,0.70
2022-08-25T20:20:34.524Z,0.73
2022-08-25T20:23:23.777Z,0.60
2022-08-25T20:25:55.337Z,0.50
2022-08-25T20:28:28.612Z,0.63
2022-08-25T20:30:59.544Z,0.75
2022-08-25T20:33:31.181Z,0.95
2022-08-25T20:36:03.195Z,0.63
2022-08-25T20:38:33.952Z,0.70
2022-08-25T20:41:05.144Z,0.75
2022-08-25T20:43:38.266Z,1.08
2022-08-25T20:46:11.468Z,1.02
2022-08-25T20:48:43.183Z,2.58
2022-08-25T20:51:15.303Z,0.52
2022-08-25T20:53:49.400Z,0.55
2022-08-25T20:56:22.353Z,0.68
2022-08-25T20:58:55.090Z,1.45
2022-08-25T21:01:38.239Z,0.70
2022-08-25T21:04:15.987Z,0.60
2022-08-25T21:06:51.063Z,0.40
2022-08-25T21:09:25.296Z,0.68
2022-08-25T21:11:58.697Z,1.05
2022-08-25T21:14:32.034Z,0.88
2022-08-25T21:17:03.217Z,0.60
2022-08-25T21:19:33.997Z,0.60
2022-08-25T21:22:04.578Z,0.82
2022-08-25T21:24:35.169Z,0.73
2022-08-25T21:27:07.130Z,0.40
2022-08-25T21:29:39.350Z,0.40
2022-08-25T21:32:16.144Z,0.68
2022-08-25T21:34:47.331Z,0.50
2022-08-25T21:37:18.244Z,0.63
2022-08-25T21:39:48.675Z,0.50
2022-08-25T21:42:19.969Z,0.68
2022-08-25T21:44:53.212Z,0.73
2022-08-25T21:47:25.489Z,1.50
2022-08-25T21:49:56.168Z,0.50
2022-08-25T21:52:27.398Z,0.40
2022-08-25T21:54:58.127Z,1.33
2022-08-25T21:57:29.001Z,0.60
2022-08-25T22:00:01.230Z,0.40
2022-08-25T22:02:31.895Z,0.50
2022-08-25T22:05:03.017Z,0.82
2022-08-25T22:07:44.208Z,0.88
2022-08-25T22:10:17.756Z,0.60
2022-08-25T22:12:48.851Z,0.68
2022-08-25T22:15:22.058Z,0.47
2022-08-25T22:17:53.156Z,0.43
2022-08-25T22:20:23.955Z,0.70
2022-08-25T22:22:56.316Z,1.42
2022-08-25T22:25:26.977Z,0.77
2022-08-25T22:27:57.733Z,0.60
2022-08-25T22:30:29.826Z,0.47
2022-08-25T22:33:01.718Z,0.65
2022-08-25T22:35:36.820Z,0.40
2022-08-25T22:38:12.436Z,0.45
2022-08-25T22:40:44.235Z,0.77
2022-08-25T22:43:15.070Z,0.50
2022-08-25T22:45:48.508Z,0.63
2022-08-25T22:48:21.381Z,0.73
2022-08-25T22:50:52.048Z,0.50
2022-08-25T22:53:23.660Z,0.70
2022-08-25T22:55:53.991Z,0.90
2022-08-25T22:58:31.687Z,0.40
2022-08-25T23:01:04.375Z,1.20
2022-08-25T23:03:36.190Z,0.30
2022-08-25T23:06:24.620Z,0.57
2022-08-25T23:08:57.133Z,0.38
2022-08-25T23:11:28.902Z,0.70
2022-08-25T23:14:01.349Z,0.38
2022-08-25T23:16:35.222Z,0.52
2022-08-25T23:19:05.891Z,0.40
2022-08-25T23:21:56.941Z,0.88
2022-08-25T23:24:30.042Z,0.70
2022-08-25T23:27:03.931Z,0.30
2022-08-25T23:29:36.484Z,0.55
2022-08-25T23:32:11.465Z,0.47
2022-08-25T23:34:47.204Z,0.43
2022-08-25T23:37:19.123Z,0.22
2022-08-25T23:39:50.897Z,0.30
2022-08-25T23:42:23.173Z,0.25
2022-08-25T23:44:54.198Z,0.65
2022-08-25T23:47:27.412Z,1.00
2022-08-25T23:49:58.415Z,0.68
2022-08-25T23:52:29.852Z,0.45
2022-08-25T23:55:08.718Z,0.40
2022-08-25T23:57:39.522Z,0.20
